Time;durP1;ratioP1;P1;durP2;ratioP2;P2;SDS_P1;SDS_P2;PMS_P1;PMS_P2;Temp;Humidity;BMP_temperature;BMP_pressure;BME280_temperature;BME280_humidity;BME280_pressure;Samples;Min_cycle;Max_cycle;Signal;HPM_P1;HPM_P2
2022/05/07 00:01:03;;;;;;;52.50;37.97;;;13.30;99.90;;;;;;5015238;28;20612;-59
2022/05/07 00:03:29;;;;;;;54.45;38.75;;;13.20;99.90;;;;;;5005856;28;20114;-58
2022/05/07 00:05:54;;;;;;;42.20;31.77;;;13.30;99.90;;;;;;5024715;28;20480;-56
2022/05/07 00:08:20;;;;;;;60.67;41.90;;;13.20;99.90;;;;;;4989807;28;20534;-59
2022/05/07 00:10:46;;;;;;;49.83;37.05;;;13.30;99.90;;;;;;5012753;28;20597;-56
2022/05/07 00:13:12;;;;;;;59.58;41.88;;;13.30;99.90;;;;;;5027642;28;20053;-58
2022/05/07 00:15:38;;;;;;;56.80;40.03;;;13.30;99.90;;;;;;5015848;28;20060;-58
2022/05/07 00:18:06;;;;;;;62.42;41.03;;;13.30;99.90;;;;;;5032410;28;20053;-57
2022/05/07 00:20:35;;;;;;;64.65;42.78;;;13.30;99.90;;;;;;5023442;28;20077;-55
2022/05/07 00:23:02;;;;;;;63.45;41.72;;;13.30;99.90;;;;;;5017267;28;20040;-54
2022/05/07 00:25:28;;;;;;;55.40;36.88;;;13.30;99.90;;;;;;5007162;28;20524;-54
2022/05/07 00:27:54;;;;;;;58.90;40.15;;;13.30;99.90;;;;;;5029962;28;20052;-52
2022/05/07 00:30:20;;;;;;;57.60;39.15;;;13.30;99.90;;;;;;5023932;28;20036;-53
2022/05/07 00:32:46;;;;;;;60.42;41.50;;;13.30;99.90;;;;;;5005459;28;20124;-56
2022/05/07 00:35:12;;;;;;;62.08;41.78;;;13.30;99.90;;;;;;5013492;28;20434;-55
2022/05/07 00:37:38;;;;;;;55.10;38.03;;;13.30;99.90;;;;;;5027206;28;20033;-55
2022/05/07 00:40:05;;;;;;;50.38;36.72;;;13.40;99.90;;;;;;5012935;28;20036;-57
2022/05/07 00:42:31;;;;;;;54.50;37.72;;;13.40;99.90;;;;;;5023122;28;20601;-56
2022/05/07 00:44:57;;;;;;;54.17;38.38;;;13.40;99.90;;;;;;5024221;28;20033;-53
2022/05/07 00:47:34;;;;;;;56.08;38.63;;;13.40;99.90;;;;;;5013309;28;20130;-54
2022/05/07 00:52:47;;;;;;;60.85;37.38;;;13.40;99.90;;;;;;5010710;28;20057;-59
2022/05/07 00:55:14;;;;;;;49.70;37.10;;;13.40;99.90;;;;;;4984893;28;20049;-58
2022/05/07 00:57:40;;;;;;;58.33;41.15;;;13.40;99.90;;;;;;5009722;28;20585;-57
2022/05/07 01:00:08;;;;;;;48.75;35.70;;;13.50;99.90;;;;;;5012659;28;20045;-59
2022/05/07 01:02:36;;;;;;;49.28;36.55;;;13.40;99.90;;;;;;5017889;28;20100;-59
2022/05/07 01:05:02;;;;;;;57.65;40.13;;;13.50;99.90;;;;;;5009257;28;20045;-58
2022/05/07 01:07:29;;;;;;;49.10;35.58;;;13.50;99.90;;;;;;5015622;28;20155;-59
2022/05/07 01:09:55;;;;;;;55.80;37.60;;;13.40;99.90;;;;;;5030616;28;20052;-58
2022/05/07 01:12:21;;;;;;;57.05;40.47;;;13.40;99.90;;;;;;5005229;28;20519;-57
2022/05/07 01:14:47;;;;;;;44.72;32.33;;;13.50;99.90;;;;;;5021985;28;20504;-54
2022/05/07 01:17:12;;;;;;;46.08;33.30;;;13.50;99.90;;;;;;5030913;28;20250;-57
2022/05/07 01:19:38;;;;;;;51.70;35.00;;;13.50;99.90;;;;;;5031047;28;20041;-57
2022/05/07 01:22:05;;;;;;;53.40;38.38;;;13.50;99.90;;;;;;5012706;28;20037;-59
2022/05/07 01:24:31;;;;;;;49.33;37.20;;;13.50;99.90;;;;;;5009065;28;20060;-53
2022/05/07 01:26:57;;;;;;;50.30;37.13;;;13.50;99.90;;;;;;5011606;28;20033;-56
2022/05/07 01:29:24;;;;;;;49.50;35.65;;;13.50;99.90;;;;;;5019335;28;20048;-58
2022/05/07 01:31:50;;;;;;;50.15;34.97;;;13.50;99.90;;;;;;5018054;28;20045;-59
2022/05/07 01:34:16;;;;;;;43.50;33.35;;;13.50;99.90;;;;;;5017127;28;20041;-58
2022/05/07 01:36:41;;;;;;;55.13;38.45;;;13.50;99.90;;;;;;5026936;28;20091;-59
2022/05/07 01:39:07;;;;;;;47.78;35.60;;;13.50;99.90;;;;;;4997896;28;20450;-57
2022/05/07 01:41:33;;;;;;;52.53;37.65;;;13.40;99.90;;;;;;5002689;28;20042;-57
2022/05/07 01:43:58;;;;;;;45.28;32.13;;;13.40;99.90;;;;;;5013453;28;20500;-58
2022/05/07 01:49:09;;;;;;;56.50;38.00;;;13.40;99.90;;;;;;4989974;28;20057;-56
2022/05/07 01:51:35;;;;;;;48.03;35.97;;;13.40;99.90;;;;;;5035600;28;20490;-58
2022/05/07 01:54:01;;;;;;;53.70;37.50;;;13.40;99.90;;;;;;4995575;28;20044;-55
2022/05/07 01:56:27;;;;;;;46.40;35.50;;;13.30;99.90;;;;;;5010246;28;20090;-57
2022/05/07 01:58:52;;;;;;;47.20;35.90;;;13.30;99.90;;;;;;5029228;28;20504;-58
2022/05/07 02:01:19;;;;;;;49.70;37.78;;;13.30;99.90;;;;;;5012727;28;20660;-53
2022/05/07 02:03:44;;;;;;;48.38;36.58;;;13.30;99.90;;;;;;5011982;28;20294;-57
2022/05/07 02:06:10;;;;;;;43.33;33.08;;;13.30;99.90;;;;;;5020630;28;20076;-54
2022/05/07 02:08:36;;;;;;;47.05;34.22;;;13.20;99.90;;;;;;5009183;28;20037;-55
2022/05/07 02:11:02;;;;;;;43.80;34.33;;;13.20;99.90;;;;;;5026544;28;20131;-57
2022/05/07 02:13:28;;;;;;;42.85;33.53;;;13.20;99.90;;;;;;5008137;28;20053;-58
2022/05/07 02:15:54;;;;;;;48.85;36.40;;;13.20;99.90;;;;;;5028516;28;20091;-55
2022/05/07 02:18:20;;;;;;;42.47;33.90;;;13.30;99.90;;;;;;4988083;28;20502;-55
2022/05/07 02:20:46;;;;;;;48.33;36.35;;;13.20;99.90;;;;;;5019332;28;20039;-59
2022/05/07 02:23:11;;;;;;;43.83;34.63;;;13.20;99.90;;;;;;5022321;22;20073;-66
2022/05/07 02:25:37;;;;;;;49.08;36.35;;;13.10;99.90;;;;;;5008638;28;20049;-62
2022/05/07 02:28:04;;;;;;;48.17;36.92;;;13.10;99.90;;;;;;5011099;28;20214;-61
2022/05/07 02:30:30;;;;;;;48.58;36.42;;;13.10;99.90;;;;;;5020443;28;20092;-61
2022/05/07 02:32:56;;;;;;;46.08;35.42;;;13.00;99.90;;;;;;5017519;28;20037;-66
2022/05/07 02:35:22;;;;;;;40.72;33.05;;;13.00;99.90;;;;;;5017955;28;20042;-62
2022/05/07 02:37:48;;;;;;;46.78;34.55;;;13.00;99.90;;;;;;5014924;28;20037;-63
2022/05/07 02:40:13;;;;;;;49.17;37.00;;;13.00;99.90;;;;;;5013318;28;20045;-66
2022/05/07 02:42:44;;;;;;;47.83;35.83;;;12.90;99.90;;;;;;5019422;28;20050;-64
2022/05/07 02:45:12;;;;;;;44.78;33.17;;;12.90;99.90;;;;;;5022218;28;20037;-62
2022/05/07 02:47:40;;;;;;;40.92;29.95;;;12.90;99.90;;;;;;5020698;28;20529;-61
2022/05/07 02:50:07;;;;;;;42.03;34.30;;;12.80;99.90;;;;;;5012435;28;20488;-62
2022/05/07 02:52:34;;;;;;;43.55;34.00;;;12.80;99.90;;;;;;5018474;28;20079;-61
2022/05/07 02:55:01;;;;;;;47.38;35.28;;;12.80;99.90;;;;;;5010757;28;20150;-66
2022/05/07 02:57:27;;;;;;;41.45;34.40;;;12.80;99.90;;;;;;5015461;28;20045;-61
2022/05/07 02:59:53;;;;;;;42.92;34.45;;;12.80;99.90;;;;;;5020138;28;20049;-65
2022/05/07 03:02:19;;;;;;;40.20;31.60;;;12.80;99.90;;;;;;5016183;28;20121;-63
2022/05/07 03:04:47;;;;;;;40.85;31.25;;;12.80;99.90;;;;;;5013003;28;20077;-62
2022/05/07 03:07:14;;;;;;;39.85;31.98;;;12.70;99.90;;;;;;5015809;28;20045;-63
2022/05/07 03:09:39;;;;;;;38.85;31.85;;;12.70;99.90;;;;;;5013984;28;20039;-66
2022/05/07 03:12:06;;;;;;;31.35;25.17;;;12.80;99.90;;;;;;5015813;28;20567;-62
2022/05/07 03:14:32;;;;;;;40.28;31.98;;;12.70;99.90;;;;;;5014461;28;20092;-63
2022/05/07 03:16:59;;;;;;;37.22;28.27;;;12.70;99.90;;;;;;5016593;28;20157;-63
2022/05/07 03:19:25;;;;;;;39.63;32.65;;;12.80;99.90;;;;;;5017292;28;20486;-61
2022/05/07 03:21:51;;;;;;;39.42;32.40;;;12.80;99.90;;;;;;5017361;28;20057;-66
2022/05/07 03:24:16;;;;;;;43.38;33.47;;;12.80;99.90;;;;;;4994724;28;20045;-63
2022/05/07 03:26:42;;;;;;;37.05;29.60;;;12.80;99.90;;;;;;5018843;28;20030;-63
2022/05/07 03:29:08;;;;;;;35.17;30.48;;;12.80;99.90;;;;;;5010098;28;20042;-65
2022/05/07 03:31:34;;;;;;;39.60;31.52;;;12.80;99.90;;;;;;5014600;28;20044;-64
2022/05/07 03:34:00;;;;;;;35.83;29.77;;;12.80;99.90;;;;;;5012726;28;20049;-63
2022/05/07 03:36:26;;;;;;;39.63;31.77;;;12.80;99.90;;;;;;4999950;28;20068;-61
2022/05/07 03:38:52;;;;;;;33.35;25.73;;;12.80;99.90;;;;;;5023280;28;20052;-62
2022/05/07 03:41:21;;;;;;;43.03;34.05;;;12.80;99.90;;;;;;5024009;28;20037;-61
2022/05/07 03:43:47;;;;;;;39.85;32.38;;;12.90;99.90;;;;;;5019842;28;20196;-61
2022/05/07 03:46:12;;;;;;;45.85;34.75;;;12.90;99.90;;;;;;5021862;28;20053;-61
2022/05/07 03:48:38;;;;;;;44.55;34.03;;;12.80;99.90;;;;;;5021601;28;20037;-62
2022/05/07 03:51:04;;;;;;;41.03;33.55;;;12.80;99.90;;;;;;5018391;28;20389;-63
2022/05/07 03:53:30;;;;;;;44.40;36.13;;;12.80;99.90;;;;;;4997853;28;20033;-64
2022/05/07 03:56:22;;;;;;;45.83;35.38;;;12.80;99.90;;;;;;4997179;28;20042;-65
2022/05/07 03:58:48;;;;;;;42.35;32.67;;;12.80;99.90;;;;;;5012933;28;20431;-65
2022/05/07 04:01:15;;;;;;;36.25;28.10;;;12.80;99.90;;;;;;5014257;28;20048;-63
2022/05/07 04:03:40;;;;;;;44.60;35.38;;;12.80;99.90;;;;;;5020600;28;20045;-63
2022/05/07 04:06:06;;;;;;;40.42;34.70;;;12.70;99.90;;;;;;5019199;28;20419;-65
2022/05/07 04:08:32;;;;;;;46.60;35.72;;;12.70;99.90;;;;;;5021123;28;20067;-61
2022/05/07 04:10:58;;;;;;;39.80;32.88;;;12.70;99.90;;;;;;5016492;28;20518;-61
2022/05/07 04:13:23;;;;;;;36.17;30.95;;;12.70;99.90;;;;;;5018085;28;20124;-65
2022/05/07 04:15:49;;;;;;;30.60;26.23;;;12.70;99.90;;;;;;5009468;28;20064;-63
2022/05/07 04:18:15;;;;;;;41.58;33.85;;;12.70;99.90;;;;;;5012844;28;20241;-67
2022/05/07 04:20:41;;;;;;;40.00;31.95;;;12.70;99.90;;;;;;5016818;28;20049;-61
2022/05/07 04:23:07;;;;;;;30.98;25.80;;;12.70;99.90;;;;;;5012310;28;20044;-64
2022/05/07 04:25:33;;;;;;;40.38;32.45;;;12.70;99.90;;;;;;5019653;28;20107;-60
2022/05/07 04:27:58;;;;;;;46.17;36.85;;;12.70;99.90;;;;;;5013087;28;20042;-63
2022/05/07 04:30:24;;;;;;;35.25;28.98;;;12.70;99.90;;;;;;4993079;28;20045;-62
2022/05/07 04:32:50;;;;;;;29.25;25.33;;;12.70;99.90;;;;;;5017233;28;20037;-66
2022/05/07 04:35:16;;;;;;;45.63;36.10;;;12.70;99.90;;;;;;5009800;28;20045;-67
2022/05/07 04:37:42;;;;;;;43.03;32.85;;;12.80;99.90;;;;;;4997458;28;20052;-64
2022/05/07 04:40:11;;;;;;;39.33;33.22;;;12.70;99.90;;;;;;5012748;28;20037;-62
2022/05/07 04:42:37;;;;;;;42.85;34.95;;;12.70;99.90;;;;;;5012951;28;20037;-62
2022/05/07 04:45:07;;;;;;;31.73;25.77;;;12.70;99.90;;;;;;5011310;28;20431;-62
2022/05/07 04:47:33;;;;;;;44.92;35.70;;;12.80;99.90;;;;;;5011515;28;20129;-64
2022/05/07 04:49:59;;;;;;;46.72;35.72;;;12.80;99.90;;;;;;5013880;28;20311;-64
2022/05/07 04:52:26;;;;;;;46.25;36.90;;;12.80;99.90;;;;;;5014909;28;21150;-62
2022/05/07 04:54:53;;;;;;;43.92;36.80;;;12.70;99.90;;;;;;5008389;28;21289;-63
2022/05/07 04:57:20;;;;;;;48.90;38.35;;;12.80;99.90;;;;;;5014693;28;20041;-62
2022/05/07 04:59:45;;;;;;;46.95;37.42;;;12.80;99.90;;;;;;5018998;28;20044;-63
2022/05/07 05:02:11;;;;;;;44.08;34.47;;;12.80;99.90;;;;;;4993911;28;20045;-62
2022/05/07 05:04:36;;;;;;;41.50;34.67;;;12.80;99.90;;;;;;5020465;28;20073;-62
2022/05/07 05:07:02;;;;;;;38.40;31.63;;;12.80;99.90;;;;;;5017127;28;20033;-66
2022/05/07 05:09:28;;;;;;;44.40;36.95;;;12.80;99.90;;;;;;5019493;28;20128;-65
2022/05/07 05:11:54;;;;;;;48.28;38.17;;;12.80;99.90;;;;;;5015220;28;20049;-63
2022/05/07 05:17:03;;;;;;;;;;;12.80;99.90;;;;;;5014206;28;20050;-66
2022/05/07 05:19:29;;;;;;;49.50;37.83;;;12.80;99.90;;;;;;5016606;28;19925;-63
2022/05/07 05:21:55;;;;;;;43.40;33.80;;;12.80;99.90;;;;;;5009584;28;20042;-65
2022/05/07 05:24:20;;;;;;;48.58;37.92;;;12.80;99.90;;;;;;5010619;28;20392;-62
2022/05/07 05:26:46;;;;;;;58.20;41.03;;;12.90;99.90;;;;;;5013864;28;20044;-61
2022/05/07 05:29:12;;;;;;;52.42;38.15;;;12.90;99.90;;;;;;5011165;28;20528;-65
2022/05/07 05:31:38;;;;;;;59.35;42.17;;;13.00;99.90;;;;;;5011902;28;20033;-65
2022/05/07 05:34:03;;;;;;;49.55;37.50;;;13.00;99.90;;;;;;5004766;28;20080;-63
2022/05/07 05:36:32;;;;;;;54.53;39.22;;;13.00;99.90;;;;;;5019971;28;20116;-60
2022/05/07 05:38:58;;;;;;;50.20;36.28;;;13.10;99.90;;;;;;5016822;28;20364;-62
2022/05/07 05:41:23;;;;;;;46.70;37.33;;;13.10;99.90;;;;;;5011133;28;20073;-63
2022/05/07 05:43:49;;;;;;;45.88;37.45;;;13.10;99.90;;;;;;5014030;28;20038;-61
2022/05/07 05:46:15;;;;;;;36.78;29.70;;;13.20;99.90;;;;;;5013714;28;20045;-65
2022/05/07 05:48:41;;;;;;;48.50;37.63;;;13.20;99.90;;;;;;5010132;28;20121;-65
2022/05/07 05:51:07;;;;;;;50.33;38.80;;;13.30;99.90;;;;;;4991601;28;20042;-66
2022/05/07 05:53:33;;;;;;;48.03;36.42;;;13.30;99.90;;;;;;5009249;28;20148;-64
2022/05/07 05:56:00;;;;;;;46.28;34.30;;;13.40;99.90;;;;;;5005759;28;20049;-62
2022/05/07 05:58:33;;;;;;;42.40;33.67;;;13.40;99.90;;;;;;5012789;28;20575;-60
2022/05/07 06:01:00;;;;;;;44.65;34.53;;;13.50;99.90;;;;;;4996991;28;20108;-61
2022/05/07 06:03:25;;;;;;;47.58;38.55;;;13.50;99.90;;;;;;4992924;28;20071;-65
2022/05/07 06:05:51;;;;;;;39.42;32.88;;;13.50;99.90;;;;;;5017284;28;20037;-61
2022/05/07 06:08:17;;;;;;;45.15;37.05;;;13.60;99.90;;;;;;5000440;28;20235;-66
2022/05/07 06:10:42;;;;;;;40.85;34.20;;;13.60;99.90;;;;;;5022438;28;20115;-62
2022/05/07 06:13:08;;;;;;;41.88;34.58;;;13.70;99.90;;;;;;4999202;28;20050;-64
2022/05/07 06:15:34;;;;;;;41.78;35.00;;;13.70;99.90;;;;;;5027147;28;20140;-61
2022/05/07 06:17:59;;;;;;;43.53;34.65;;;13.80;99.90;;;;;;5018128;28;20048;-62
2022/05/07 06:20:25;;;;;;;53.97;38.72;;;13.90;99.90;;;;;;5013079;28;20054;-60
2022/05/07 06:22:51;;;;;;;52.35;38.20;;;14.00;99.90;;;;;;5014332;28;20053;-62
2022/05/07 06:28:01;;;;;;;58.70;41.13;;;14.10;99.90;;;;;;5017069;28;20454;-63
2022/05/07 06:30:27;;;;;;;58.92;42.47;;;14.30;99.90;;;;;;5012109;28;20052;-61
2022/05/07 06:32:53;;;;;;;52.15;39.63;;;14.40;99.90;;;;;;5009376;28;20065;-66
2022/05/07 06:35:18;;;;;;;58.42;41.80;;;14.50;99.90;;;;;;5010092;28;20033;-64
2022/05/07 06:37:48;;;;;;;53.25;41.67;;;14.50;99.90;;;;;;5008882;28;20179;-61
2022/05/07 06:40:14;;;;;;;53.65;41.58;;;14.60;99.90;;;;;;5012424;28;20128;-66
2022/05/07 06:42:40;;;;;;;53.33;39.67;;;14.60;99.90;;;;;;5014455;28;20033;-62
2022/05/07 06:45:06;;;;;;;50.75;38.83;;;14.70;99.90;;;;;;5017968;28;20052;-63
2022/05/07 06:47:32;;;;;;;56.17;42.13;;;14.80;99.90;;;;;;5017052;28;20099;-62
2022/05/07 06:49:58;;;;;;;49.53;40.55;;;14.90;99.90;;;;;;5004713;28;20484;-64
2022/05/07 06:52:24;;;;;;;51.10;40.70;;;14.90;99.90;;;;;;4994587;28;20502;-62
2022/05/07 06:54:50;;;;;;;58.47;44.13;;;14.90;99.90;;;;;;5012485;28;20045;-62
2022/05/07 06:57:15;;;;;;;57.80;44.22;;;15.00;99.90;;;;;;4993928;28;20510;-63
2022/05/07 06:59:43;;;;;;;55.67;43.88;;;15.00;99.90;;;;;;5019358;28;20069;-63
2022/05/07 07:02:09;;;;;;;51.58;40.67;;;15.00;99.90;;;;;;5015690;28;20091;-63
2022/05/07 07:04:34;;;;;;;52.28;40.65;;;15.10;99.90;;;;;;5011064;28;20045;-63
2022/05/07 07:07:00;;;;;;;54.28;42.38;;;15.20;99.90;;;;;;5017517;28;20041;-63
2022/05/07 07:09:26;;;;;;;54.60;41.95;;;15.30;99.90;;;;;;5018718;28;20565;-61
2022/05/07 07:11:51;;;;;;;54.28;41.00;;;15.40;99.90;;;;;;5022026;28;20041;-65
2022/05/07 07:14:17;;;;;;;49.80;38.45;;;15.50;99.90;;;;;;5023405;28;20519;-62
2022/05/07 07:16:43;;;;;;;46.45;37.38;;;15.50;99.90;;;;;;5022705;28;20048;-65
2022/05/07 07:19:09;;;;;;;49.08;37.65;;;15.50;99.90;;;;;;5024285;28;20049;-63
2022/05/07 07:21:35;;;;;;;51.33;38.60;;;15.50;99.90;;;;;;5022862;28;20558;-62
2022/05/07 07:24:01;;;;;;;51.88;38.85;;;15.50;99.90;;;;;;5023228;28;20266;-64
2022/05/07 07:26:27;;;;;;;53.65;41.63;;;15.60;99.90;;;;;;5023712;28;20073;-62
2022/05/07 07:28:53;;;;;;;55.70;42.20;;;15.60;99.90;;;;;;5016638;28;20411;-64
2022/05/07 07:31:19;;;;;;;54.47;39.72;;;15.70;99.90;;;;;;5011668;28;20056;-65
2022/05/07 07:33:45;;;;;;;51.70;38.65;;;15.70;99.90;;;;;;5021331;28;20042;-65
2022/05/07 07:36:13;;;;;;;47.13;34.58;;;15.70;99.90;;;;;;5018117;28;20232;-64
2022/05/07 07:38:39;;;;;;;51.80;39.45;;;15.70;99.90;;;;;;5019317;28;20044;-65
2022/05/07 07:41:05;;;;;;;46.65;35.22;;;15.80;99.90;;;;;;5023010;28;20036;-61
2022/05/07 07:43:31;;;;;;;48.90;34.50;;;15.70;99.90;;;;;;5022562;28;20050;-62
2022/05/07 07:48:41;;;;;;;50.75;36.85;;;15.60;99.90;;;;;;5012680;28;20046;-63
2022/05/07 07:51:08;;;;;;;48.30;36.03;;;15.60;99.90;;;;;;5012144;28;20164;-62
2022/05/07 07:53:34;;;;;;;48.20;36.63;;;15.60;99.90;;;;;;5017790;28;20124;-61
2022/05/07 07:56:00;;;;;;;61.70;42.40;;;15.70;99.90;;;;;;5021913;28;20041;-62
2022/05/07 07:58:26;;;;;;;63.00;42.90;;;15.60;99.90;;;;;;5021971;28;20496;-60
2022/05/07 08:00:53;;;;;;;60.40;42.20;;;15.60;99.90;;;;;;5025055;28;20041;-60
2022/05/07 08:03:20;;;;;;;56.20;41.42;;;15.60;99.90;;;;;;5027129;28;20037;-61
2022/05/07 08:05:48;;;;;;;60.67;44.67;;;15.70;99.90;;;;;;5026598;28;20049;-62
2022/05/07 08:13:45;;;;;;;56.83;42.85;;;15.80;99.90;;;;;;5055624;22;20044;-55
2022/05/07 08:16:12;;;;;;;58.92;42.45;;;15.80;99.90;;;;;;5063909;28;20063;-57
2022/05/07 08:18:41;;;;;;;61.53;41.85;;;15.80;99.90;;;;;;5068694;28;20174;-55
2022/05/07 08:21:08;;;;;;;59.58;42.40;;;15.90;99.90;;;;;;5059636;28;20040;-54
2022/05/07 08:23:35;;;;;;;58.25;41.20;;;16.00;99.90;;;;;;5068913;28;20380;-61
2022/05/07 08:26:04;;;;;;;65.75;46.65;;;16.10;99.90;;;;;;5063595;28;20181;-62
2022/05/07 08:28:31;;;;;;;61.88;43.55;;;16.10;99.90;;;;;;5058033;28;20169;-58
2022/05/07 08:30:57;;;;;;;67.72;47.83;;;16.20;99.90;;;;;;5056640;28;20047;-64
2022/05/07 08:33:23;;;;;;;63.83;44.75;;;16.30;99.90;;;;;;5050730;28;20044;-59
2022/05/07 08:35:49;;;;;;;63.15;42.80;;;16.30;99.90;;;;;;5060704;28;20540;-56
2022/05/07 08:38:15;;;;;;;57.20;40.63;;;16.20;99.90;;;;;;5039775;28;20395;-59
2022/05/07 08:40:41;;;;;;;64.00;46.33;;;16.20;99.90;;;;;;5040150;28;20055;-59
2022/05/07 08:43:07;;;;;;;67.30;45.33;;;16.20;99.90;;;;;;5069156;28;20398;-60
2022/05/07 08:45:35;;;;;;;65.57;43.45;;;16.30;99.90;;;;;;5075824;28;20522;-57
2022/05/07 08:48:00;;;;;;;62.45;43.65;;;16.30;99.90;;;;;;5054545;28;20043;-61
2022/05/07 08:50:27;;;;;;;59.92;40.72;;;16.30;99.90;;;;;;5085330;28;20485;-58
2022/05/07 08:52:53;;;;;;;60.55;41.83;;;16.30;99.90;;;;;;5054816;28;20398;-60
2022/05/07 08:55:20;;;;;;;59.33;40.65;;;16.40;99.90;;;;;;5073670;28;20044;-57
2022/05/07 08:57:51;;;;;;;60.30;42.42;;;16.30;99.90;;;;;;5061162;28;20032;-65
2022/05/07 09:00:22;;;;;;;58.35;41.25;;;16.30;99.90;;;;;;5055556;28;20036;-63
2022/05/07 09:02:58;;;;;;;54.13;38.55;;;16.30;99.90;;;;;;5049305;28;20039;-53
2022/05/07 09:05:37;;;;;;;55.58;38.53;;;16.30;99.90;;;;;;5075181;28;20223;-59
2022/05/07 09:08:05;;;;;;;62.78;43.20;;;16.40;99.90;;;;;;5063374;28;20055;-55
2022/05/07 09:10:32;;;;;;;54.65;37.83;;;16.50;99.90;;;;;;5058654;28;20491;-60
2022/05/07 09:13:10;;;;;;;55.90;40.08;;;16.60;99.90;;;;;;5058508;28;20556;-56
2022/05/07 09:15:57;;;;;;;44.15;33.10;;;16.60;99.90;;;;;;5041215;28;20040;-55
2022/05/07 09:18:25;;;;;;;43.13;33.70;;;16.50;99.90;;;;;;5066142;28;20043;-64
2022/05/07 09:21:24;;;;;;;43.22;29.65;;;16.40;99.90;;;;;;5078827;28;20543;-57
2022/05/07 09:23:55;;;;;;;42.25;30.40;;;16.40;99.90;;;;;;5039329;28;20046;-64
2022/05/07 09:26:35;;;;;;;40.10;30.88;;;16.40;99.90;;;;;;5077447;28;20055;-54
2022/05/07 09:29:03;;;;;;;38.90;27.70;;;16.50;99.90;;;;;;5058057;28;20035;-58
2022/05/07 09:31:34;;;;;;;41.90;28.35;;;16.60;99.90;;;;;;5055666;28;20110;-58
2022/05/07 09:36:55;;;;;;;39.63;30.05;;;16.90;99.90;;;;;;5064064;28;20445;-58
2022/05/07 09:39:21;;;;;;;47.20;34.17;;;17.00;99.90;;;;;;5091802;28;20076;-59
2022/05/07 09:41:53;;;;;;;45.20;34.30;;;16.90;99.90;;;;;;5068007;28;20074;-56
2022/05/07 09:44:20;;;;;;;47.55;33.90;;;16.60;99.90;;;;;;5062878;28;20066;-58
2022/05/07 09:46:46;;;;;;;46.00;33.05;;;16.50;99.90;;;;;;5071240;28;20028;-58
2022/05/07 09:49:12;;;;;;;44.70;34.20;;;16.40;99.90;;;;;;5044502;28;20047;-58
2022/05/07 09:51:40;;;;;;;45.83;33.13;;;16.40;99.90;;;;;;5073248;28;20060;-58
2022/05/07 09:59:36;;;;;;;;;;;16.40;99.90;;;;;;5065570;28;20482;-57
2022/05/07 10:02:32;;;;;;;70.35;45.85;;;16.20;99.90;;;;;;5067992;28;19920;-59
2022/05/07 10:05:31;;;;;;;61.55;42.88;;;16.20;99.90;;;;;;5060495;28;20058;-61
2022/05/07 10:08:32;;;;;;;56.13;38.15;;;16.30;99.90;;;;;;5064334;28;20039;-57
2022/05/07 10:10:58;;;;;;;48.63;34.67;;;16.20;99.90;;;;;;5074868;28;20135;-57
2022/05/07 10:13:24;;;;;;;47.63;34.40;;;16.10;99.90;;;;;;5061599;28;20058;-57
2022/05/07 10:16:01;;;;;;;46.17;32.20;;;16.10;99.90;;;;;;5066080;28;20483;-57
2022/05/07 10:18:41;;;;;;;41.83;29.30;;;16.30;99.90;;;;;;5063645;28;20044;-61
2022/05/07 10:21:15;;;;;;;39.35;28.52;;;16.40;99.90;;;;;;5069090;28;20076;-58
2022/05/07 10:23:56;;;;;;;39.05;28.55;;;16.50;99.90;;;;;;5064405;28;20045;-58
2022/05/07 10:26:36;;;;;;;35.72;26.23;;;16.70;99.90;;;;;;5071471;28;20094;-61
2022/05/07 10:29:03;;;;;;;31.85;23.30;;;16.90;99.90;;;;;;5068524;28;20036;-59
2022/05/07 10:31:29;;;;;;;33.78;22.77;;;17.00;99.90;;;;;;5042944;28;20101;-59
2022/05/07 10:33:55;;;;;;;27.13;17.90;;;17.10;99.90;;;;;;5064160;28;20048;-59
2022/05/07 10:36:21;;;;;;;20.48;15.20;;;17.20;99.90;;;;;;5048120;28;20044;-58
2022/05/07 10:38:49;;;;;;;17.02;11.77;;;17.40;99.90;;;;;;5054926;28;20040;-61
2022/05/07 10:41:15;;;;;;;15.98;11.50;;;17.50;99.90;;;;;;5089926;28;20332;-59
2022/05/07 10:44:02;;;;;;;17.70;12.35;;;17.60;99.90;;;;;;5077879;28;20083;-58
2022/05/07 10:46:42;;;;;;;16.65;11.52;;;17.70;99.90;;;;;;5066102;28;20123;-59
2022/05/07 10:49:08;;;;;;;18.13;12.73;;;17.70;99.90;;;;;;5081668;28;20035;-59
2022/05/07 10:51:39;;;;;;;16.38;10.48;;;17.80;99.90;;;;;;5076392;28;20496;-59
2022/05/07 10:54:31;;;;;;;18.40;13.15;;;17.90;99.90;;;;;;5033189;28;20076;-59
2022/05/07 10:56:58;;;;;;;20.85;14.77;;;18.00;99.90;;;;;;5052955;28;20138;-61
2022/05/07 10:59:27;;;;;;;20.83;15.57;;;18.10;99.90;;;;;;5046307;28;20048;-60
2022/05/07 11:02:08;;;;;;;16.55;12.45;;;18.00;99.90;;;;;;5043544;28;20040;-56
2022/05/07 11:04:43;;;;;;;18.98;13.10;;;17.90;99.90;;;;;;5061129;28;20050;-58
2022/05/07 11:07:10;;;;;;;21.60;14.90;;;17.90;99.90;;;;;;5053884;28;20135;-59
2022/05/07 11:09:37;;;;;;;21.98;17.52;;;17.80;99.90;;;;;;5052291;28;20479;-58
2022/05/07 11:12:03;;;;;;;24.30;16.52;;;17.50;99.90;;;;;;5051104;28;20084;-57
2022/05/07 11:14:32;;;;;;;20.27;16.20;;;17.50;99.90;;;;;;5046204;28;20060;-59
2022/05/07 11:16:59;;;;;;;22.17;16.52;;;17.60;99.90;;;;;;5052162;28;20054;-60
2022/05/07 11:19:31;;;;;;;24.85;15.82;;;17.60;99.90;;;;;;5070417;28;20518;-62
2022/05/07 11:21:59;;;;;;;24.55;16.30;;;17.80;99.90;;;;;;5045285;28;20082;-60
2022/05/07 11:24:26;;;;;;;19.83;15.68;;;17.90;99.90;;;;;;5045055;28;20087;-58
2022/05/07 11:27:02;;;;;;;21.33;15.73;;;17.90;99.90;;;;;;5039286;28;20051;-58
2022/05/07 11:29:29;;;;;;;22.40;15.73;;;17.90;99.90;;;;;;5043913;28;20040;-61
2022/05/07 11:31:59;;;;;;;20.33;15.20;;;17.90;99.90;;;;;;5032359;28;20068;-61
2022/05/07 11:34:33;;;;;;;18.95;14.35;;;18.00;99.90;;;;;;5041431;28;20467;-58
2022/05/07 11:37:39;;;;;;;21.50;14.63;;;18.00;99.90;;;;;;5058213;28;20407;-59
2022/05/07 11:40:05;;;;;;;18.55;13.73;;;18.20;99.90;;;;;;4997040;28;20185;-58
2022/05/07 11:42:43;;;;;;;18.08;13.20;;;18.30;99.90;;;;;;5065780;28;20119;-58
2022/05/07 11:45:33;;;;;;;21.55;14.10;;;18.40;99.90;;;;;;5025489;28;20191;-58
2022/05/07 11:48:04;;;;;;;22.92;15.15;;;18.20;99.90;;;;;;5032282;28;20458;-57
2022/05/07 11:50:32;;;;;;;22.33;12.93;;;18.10;99.90;;;;;;5048954;28;20048;-60
2022/05/07 11:53:15;;;;;;;20.92;14.55;;;18.10;99.90;;;;;;5051038;28;20081;-59
2022/05/07 11:55:43;;;;;;;18.85;12.45;;;18.20;99.90;;;;;;5068926;28;20055;-60
2022/05/07 11:58:22;;;;;;;19.55;12.15;;;18.20;99.90;;;;;;5046939;28;20037;-59
2022/05/07 12:00:57;;;;;;;15.90;10.90;;;18.20;99.90;;;;;;5040803;28;20478;-59
2022/05/07 12:03:24;;;;;;;19.67;12.88;;;18.30;99.90;;;;;;5062587;28;20048;-62
2022/05/07 12:05:52;;;;;;;18.60;13.50;;;18.30;99.90;;;;;;5039500;28;20502;-59
2022/05/07 12:08:20;;;;;;;18.23;13.85;;;18.00;99.90;;;;;;5049029;28;20268;-59
2022/05/07 12:10:49;;;;;;;20.85;14.65;;;18.20;99.90;;;;;;5047137;28;20407;-57
2022/05/07 12:13:16;;;;;;;17.25;14.73;;;18.50;99.90;;;;;;5044418;28;20443;-58
2022/05/07 12:18:27;;;;;;;19.13;14.82;;;18.60;99.90;;;;;;5049083;28;20036;-58
2022/05/07 12:20:54;;;;;;;17.73;13.25;;;18.50;99.90;;;;;;5040850;28;20102;-59
2022/05/07 12:31:32;;;;;;;18.80;13.43;;;18.40;99.90;;;;;;5046112;28;20647;-62
2022/05/07 12:33:58;;;;;;;18.10;13.40;;;18.50;99.90;;;;;;5034030;28;20236;-57
2022/05/07 12:36:24;;;;;;;16.58;13.15;;;18.60;99.90;;;;;;5037499;28;20551;-59
2022/05/07 12:38:50;;;;;;;18.55;14.00;;;18.70;99.90;;;;;;5081074;28;20036;-59
2022/05/07 12:41:16;;;;;;;18.55;12.75;;;18.60;99.90;;;;;;5062402;28;20048;-57
2022/05/07 12:43:42;;;;;;;16.80;11.93;;;18.50;99.90;;;;;;5067220;28;20536;-59
2022/05/07 12:46:07;;;;;;;19.58;13.48;;;18.50;99.90;;;;;;5056980;28;20044;-63
2022/05/07 12:48:33;;;;;;;17.92;12.93;;;18.50;99.90;;;;;;5052384;28;20040;-60
2022/05/07 12:50:59;;;;;;;19.42;12.77;;;18.40;99.90;;;;;;5041213;28;20040;-61
2022/05/07 12:53:24;;;;;;;18.83;12.77;;;18.50;99.90;;;;;;5049301;28;20073;-60
2022/05/07 12:55:50;;;;;;;20.05;14.05;;;18.40;99.90;;;;;;5079816;28;20041;-60
2022/05/07 12:58:16;;;;;;;13.45;11.50;;;18.30;99.90;;;;;;5069984;28;20213;-59
2022/05/07 13:00:42;;;;;;;16.30;12.65;;;18.50;99.90;;;;;;5069334;28;20036;-63
2022/05/07 13:03:09;;;;;;;13.18;10.95;;;18.90;99.90;;;;;;5040260;28;20048;-62
2022/05/07 13:05:36;;;;;;;15.57;10.80;;;19.20;99.90;;;;;;5057189;28;20105;-60
2022/05/07 13:08:04;;;;;;;16.70;10.93;;;19.20;99.80;;;;;;5047761;28;20076;-61
2022/05/07 13:10:31;;;;;;;12.30;9.25;;;19.20;99.80;;;;;;5039972;28;20098;-60